Time;durP1;ratioP1;P1;durP2;ratioP2;P2;SDS_P1;SDS_P2;PMS_P1;PMS_P2;Temp;Humidity;BMP_temperature;BMP_pressure;BME280_temperature;BME280_humidity;BME280_pressure;Samples;Min_cycle;Max_cycle;Signal;HPM_P1;HPM_P2
2023/11/02 00:00:36;;;;;;;;;;;;;;;8.68;97.91;99549.70;111415;1209;124773;-70
2023/11/02 00:03:06;;;;;;;;;;;;;;;8.66;97.93;99546.60;111589;1211;96947;-71
2023/11/02 00:05:43;;;;;;;;;;;;;;;8.66;98.01;99540.20;111435;1208;99656;-71
2023/11/02 00:08:09;;;;;;;;;;;;;;;8.65;97.91;99544.66;111456;1208;107464;-70
2023/11/02 00:10:35;;;;;;;;;;;;;;;8.65;98.10;99541.45;111459;1208;97604;-70
2023/11/02 00:13:01;;;;;;;;;;;;;;;8.67;98.09;99545.67;111429;1209;124736;-71
2023/11/02 00:15:26;;;;;;;;;;;;;;;8.66;98.08;99543.72;111471;1208;97607;-71
2023/11/02 00:17:55;;;;;;;;;;;;;;;8.67;98.21;99545.98;111400;1212;126753;-69
2023/11/02 00:20:31;;;;;;;;;;;;;;;8.68;98.10;99548.98;111440;1208;99773;-69
2023/11/02 00:22:56;;;;;;;;;;;;;;;8.68;98.16;99546.10;111514;1210;97627;-69
2023/11/02 00:25:42;;;;;;;;;;;;;;;8.68;98.22;99545.97;111387;1209;124638;-69
2023/11/02 00:28:08;;;;;;;;;;;;;;;8.63;98.03;99540.17;111497;1208;99566;-70
2023/11/02 00:30:35;;;;;;;;;;;;;;;8.58;97.94;99540.79;111394;1212;125110;-69
2023/11/02 00:33:00;;;;;;;;;;;;;;;8.55;98.15;99535.77;111529;1208;97753;-69
2023/11/02 00:35:25;;;;;;;;;;;;;;;8.54;98.17;99529.06;111484;1212;96456;-69
2023/11/02 00:37:50;;;;;;;;;;;;;;;8.53;98.22;99528.06;111402;1212;125633;-69
2023/11/02 00:40:16;;;;;;;;;;;;;;;8.51;98.22;99523.90;111616;1213;96448;-69
2023/11/02 00:42:42;;;;;;;;;;;;;;;8.49;98.28;99532.35;111363;1208;124937;-69
2023/11/02 00:45:08;;;;;;;;;;;;;;;8.47;98.26;99535.12;111515;1208;97689;-69
2023/11/02 00:47:33;;;;;;;;;;;;;;;8.44;98.17;99523.19;111569;1209;97645;-69
2023/11/02 00:49:58;;;;;;;;;;;;;;;8.40;98.16;99517.14;111423;1214;124630;-69
2023/11/02 00:52:23;;;;;;;;;;;;;;;8.36;98.15;99514.88;111479;1212;97716;-69
2023/11/02 00:54:58;;;;;;;;;;;;;;;8.34;98.13;99520.16;111431;1212;125076;-69
2023/11/02 00:57:26;;;;;;;;;;;;;;;8.32;98.26;99516.34;111470;1212;107896;-69
2023/11/02 00:59:52;;;;;;;;;;;;;;;8.29;98.22;99517.52;111405;1213;125657;-69
2023/11/02 01:02:18;;;;;;;;;;;;;;;8.27;98.25;99517.27;111482;1209;97690;-69
2023/11/02 01:04:43;;;;;;;;;;;;;;;8.24;98.30;99512.61;111561;1208;97613;-69
2023/11/02 01:07:09;;;;;;;;;;;;;;;8.21;98.26;99511.71;111356;1212;124676;-69
2023/11/02 01:09:35;;;;;;;;;;;;;;;8.19;98.30;99511.64;111430;1212;97601;-69
2023/11/02 01:12:00;;;;;;;;;;;;;;;8.16;98.21;99508.79;111461;1212;124793;-68
2023/11/02 01:14:43;;;;;;;;;;;;;;;8.13;98.29;99511.23;111552;1209;97602;-69
2023/11/02 01:17:11;;;;;;;;;;;;;;;8.11;98.32;99514.89;111662;1212;107877;-68
2023/11/02 01:19:39;;;;;;;;;;;;;;;8.09;98.33;99503.96;111412;1212;126003;-69
2023/11/02 01:22:24;;;;;;;;;;;;;;;8.09;98.36;99499.18;111546;1208;97739;-68
2023/11/02 01:24:49;;;;;;;;;;;;;;;8.08;98.47;99494.94;111371;1208;125830;-68
2023/11/02 01:27:23;;;;;;;;;;;;;;;8.06;98.42;99496.11;111558;1208;97706;-69
2023/11/02 01:29:48;;;;;;;;;;;;;;;8.03;98.31;99497.14;111380;1208;124901;-68
2023/11/02 01:32:15;;;;;;;;;;;;;;;8.00;98.35;99488.80;111537;1212;97681;-69
2023/11/02 01:34:40;;;;;;;;;;;;;;;7.97;98.46;99487.50;111588;1211;97759;-68
2023/11/02 01:37:05;;;;;;;;;;;;;;;7.96;98.38;99496.27;111405;1208;124664;-69
2023/11/02 01:39:31;;;;;;;;;;;;;;;7.94;98.49;99488.73;111519;1212;97565;-69
2023/11/02 01:42:03;;;;;;;;;;;;;;;7.94;98.55;99492.64;111406;1212;124721;-68
2023/11/02 01:45:00;;;;;;;;;;;;;;;7.93;98.53;99490.21;111513;1212;112007;-68
2023/11/02 01:47:26;;;;;;;;;;;;;;;7.91;98.51;99488.38;111352;1215;99745;-68
2023/11/02 01:49:55;;;;;;;;;;;;;;;7.88;98.56;99478.92;111383;1208;125642;-68
2023/11/02 01:52:38;;;;;;;;;;;;;;;7.85;98.52;99474.96;111467;1212;97587;-69
2023/11/02 01:55:22;;;;;;;;;;;;;;;7.81;98.48;99463.92;111422;1208;125245;-68
2023/11/02 01:58:00;;;;;;;;;;;;;;;7.78;98.49;99463.10;111508;1212;110958;-68
2023/11/02 02:00:32;;;;;;;;;;;;;;;7.75;98.51;99464.48;111317;1212;125686;-68
2023/11/02 02:03:04;;;;;;;;;;;;;;;7.72;98.55;99461.09;111455;1212;107402;-67
2023/11/02 02:05:34;;;;;;;;;;;;;;;7.70;98.63;99456.56;111453;1208;97705;-68
2023/11/02 02:08:05;;;;;;;;;;;;;;;7.68;98.58;99450.98;111445;1212;125538;-71
2023/11/02 02:10:36;;;;;;;;;;;;;;;7.65;98.60;99443.51;111387;1212;110224;-70
2023/11/02 02:13:20;;;;;;;;;;;;;;;7.63;98.56;99438.06;111401;1212;124703;-68
2023/11/02 02:15:45;;;;;;;;;;;;;;;7.60;98.60;99431.80;111465;1212;107489;-68
2023/11/02 02:18:15;;;;;;;;;;;;;;;7.59;98.53;99436.69;111428;1208;125030;-68
2023/11/02 02:20:44;;;;;;;;;;;;;;;7.57;98.66;99440.48;111501;1212;96405;-68
2023/11/02 02:23:11;;;;;;;;;;;;;;;7.56;98.68;99439.85;111537;1209;111221;-69
2023/11/02 02:26:01;;;;;;;;;;;;;;;7.54;98.73;99442.10;111464;1212;126529;-69
2023/11/02 02:28:40;;;;;;;;;;;;;;;7.53;98.73;99439.84;111433;1222;107518;-69
2023/11/02 02:31:28;;;;;;;;;;;;;;;7.53;98.83;99432.74;111423;1213;124994;-69
2023/11/02 02:34:07;;;;;;;;;;;;;;;7.54;98.80;99435.02;111535;1212;97589;-69
2023/11/02 02:36:35;;;;;;;;;;;;;;;7.54;98.97;99433.39;111423;1208;124685;-68
2023/11/02 02:39:06;;;;;;;;;;;;;;;7.55;98.98;99436.36;111537;1212;99796;-69
2023/11/02 02:41:41;;;;;;;;;;;;;;;7.55;98.90;99435.10;111429;1212;107123;-69
2023/11/02 02:44:11;;;;;;;;;;;;;;;7.54;98.92;99426.96;111403;1208;125834;-68
2023/11/02 02:46:40;;;;;;;;;;;;;;;7.55;99.00;99422.84;111449;1213;97574;-68
2023/11/02 02:49:05;;;;;;;;;;;;;;;7.55;98.96;99424.10;111358;1212;124659;-69
2023/11/02 02:51:33;;;;;;;;;;;;;;;7.56;99.21;99421.91;111522;1208;98881;-68
2023/11/02 02:54:01;;;;;;;;;;;;;;;7.57;99.11;99415.80;111394;1212;125712;-68
2023/11/02 02:56:28;;;;;;;;;;;;;;;7.57;99.16;99412.45;111478;1212;97646;-68
2023/11/02 02:58:58;;;;;;;;;;;;;;;7.56;99.17;99406.59;111469;1209;96383;-68
2023/11/02 03:01:24;;;;;;;;;;;;;;;7.56;99.12;99401.80;111407;1208;125510;-69
2023/11/02 03:03:49;;;;;;;;;;;;;;;7.53;99.07;99394.14;111520;1208;97609;-68
2023/11/02 03:06:16;;;;;;;;;;;;;;;7.52;99.18;99394.73;111481;1212;127117;-68
2023/11/02 03:08:41;;;;;;;;;;;;;;;7.51;99.16;99394.78;111513;1212;97595;-69
2023/11/02 03:11:08;;;;;;;;;;;;;;;7.51;99.28;99397.27;111552;1212;97703;-69
2023/11/02 03:13:34;;;;;;;;;;;;;;;7.50;99.20;99392.70;111392;1212;124739;-69
2023/11/02 03:16:01;;;;;;;;;;;;;;;7.49;99.25;99391.66;111541;1213;97582;-69
2023/11/02 03:18:31;;;;;;;;;;;;;;;7.49;99.31;99389.18;111442;1214;124806;-68
2023/11/02 03:20:56;;;;;;;;;;;;;;;7.50;99.36;99386.64;111526;1213;110890;-68
2023/11/02 03:23:28;;;;;;;;;;;;;;;7.53;99.46;99388.62;111517;1208;97593;-69
2023/11/02 03:25:53;;;;;;;;;;;;;;;7.54;99.44;99391.27;111441;1208;125112;-68
2023/11/02 03:28:21;;;;;;;;;;;;;;;7.55;99.51;99391.04;111536;1209;96485;-69
2023/11/02 03:31:06;;;;;;;;;;;;;;;7.55;99.48;99382.35;111364;1208;125357;-68
2023/11/02 03:33:43;;;;;;;;;;;;;;;7.56;99.53;99372.52;111512;1209;109982;-69
2023/11/02 03:36:11;;;;;;;;;;;;;;;7.57;99.56;99371.21;111488;1209;126477;-69
2023/11/02 03:38:44;;;;;;;;;;;;;;;7.57;99.54;99367.98;111521;1214;107385;-68
2023/11/02 03:41:26;;;;;;;;;;;;;;;7.57;99.65;99359.80;111518;1212;97613;-69
2023/11/02 03:43:54;;;;;;;;;;;;;;;7.58;99.72;99351.77;111419;1208;124847;-69
2023/11/02 03:46:51;;;;;;;;;;;;;;;7.59;99.66;99350.13;111437;1208;111243;-68
2023/11/02 03:49:30;;;;;;;;;;;;;;;7.59;99.72;99352.21;111243;1212;125137;-69
2023/11/02 03:52:08;;;;;;;;;;;;;;;7.60;99.78;99350.40;111521;1214;109213;-72
2023/11/02 03:54:42;;;;;;;;;;;;;;;7.60;99.73;99351.10;111345;1213;125527;-72
2023/11/02 03:57:26;;;;;;;;;;;;;;;7.61;99.89;99349.66;111541;1212;97660;-71
2023/11/02 04:00:02;;;;;;;;;;;;;;;7.60;99.82;99348.62;111422;1208;125534;-71
2023/11/02 04:02:29;;;;;;;;;;;;;;;7.59;99.83;99352.59;111496;1213;100329;-72
2023/11/02 04:05:00;;;;;;;;;;;;;;;7.59;99.84;99353.66;111486;1213;97646;-72
2023/11/02 04:07:36;;;;;;;;;;;;;;;7.58;99.93;99348.72;111420;1213;124974;-71
2023/11/02 04:10:06;;;;;;;;;;;;;;;7.58;99.91;99342.86;111563;1208;97582;-72
2023/11/02 04:12:38;;;;;;;;;;;;;;;7.58;99.92;99333.25;111451;1212;125136;-72
2023/11/02 04:15:05;;;;;;;;;;;;;;;7.57;99.96;99335.11;111584;1212;99555;-72
2023/11/02 04:17:31;;;;;;;;;;;;;;;7.55;99.94;99335.94;111522;1208;108458;-72
2023/11/02 04:19:56;;;;;;;;;;;;;;;7.52;99.91;99332.16;111392;1208;125321;-73
2023/11/02 04:22:22;;;;;;;;;;;;;;;7.52;99.96;99327.05;111602;1208;97594;-71
2023/11/02 04:24:47;;;;;;;;;;;;;;;7.48;99.84;99322.02;111414;1212;124787;-71
2023/11/02 04:27:12;;;;;;;;;;;;;;;7.47;99.91;99323.88;111586;1208;97641;-72
2023/11/02 04:29:38;;;;;;;;;;;;;;;7.47;100.00;99319.95;111480;1214;99254;-72
2023/11/02 04:32:03;;;;;;;;;;;;;;;7.46;99.96;99309.15;111409;1212;124663;-72
2023/11/02 04:34:28;;;;;;;;;;;;;;;7.45;99.98;99309.02;111531;1208;97602;-72
2023/11/02 04:36:53;;;;;;;;;;;;;;;7.46;99.99;99307.58;111358;1212;124743;-71
2023/11/02 04:39:19;;;;;;;;;;;;;;;7.47;100.00;99305.05;111592;1209;97671;-72
2023/11/02 04:41:45;;;;;;;;;;;;;;;7.47;100.00;99305.55;111386;1208;124874;-72
2023/11/02 04:44:10;;;;;;;;;;;;;;;7.47;100.00;99301.13;111535;1208;97666;-72
2023/11/02 04:46:35;;;;;;;;;;;;;;;7.49;100.00;99300.14;111555;1212;97636;-72
2023/11/02 04:49:00;;;;;;;;;;;;;;;7.48;100.00;99298.04;111420;1208;124888;-72
2023/11/02 04:51:25;;;;;;;;;;;;;;;7.48;100.00;99301.94;111523;1209;97603;-72
2023/11/02 04:53:51;;;;;;;;;;;;;;;7.50;100.00;99302.92;111444;1208;124848;-71
2023/11/02 04:56:19;;;;;;;;;;;;;;;7.52;100.00;99302.10;111603;1208;97731;-72
2023/11/02 04:58:44;;;;;;;;;;;;;;;7.54;100.00;99298.28;111558;1208;98634;-72
2023/11/02 05:01:09;;;;;;;;;;;;;;;7.54;100.00;99291.19;111411;1212;124821;-72
2023/11/02 05:03:34;;;;;;;;;;;;;;;7.55;100.00;99291.33;111582;1208;97735;-72
2023/11/02 05:06:00;;;;;;;;;;;;;;;7.56;100.00;99282.20;111471;1214;126106;-71
2023/11/02 05:08:25;;;;;;;;;;;;;;;7.57;100.00;99283.39;111603;1208;97762;-72
2023/11/02 05:10:50;;;;;;;;;;;;;;;7.58;100.00;99285.60;111533;1213;97624;-72
2023/11/02 05:13:16;;;;;;;;;;;;;;;7.60;100.00;99287.63;111507;1212;124871;-72
2023/11/02 05:15:41;;;;;;;;;;;;;;;7.62;100.00;99274.39;111508;1211;99525;-71
2023/11/02 05:18:06;;;;;;;;;;;;;;;7.64;100.00;99272.52;111393;1214;125520;-71
2023/11/02 05:20:31;;;;;;;;;;;;;;;7.67;100.00;99264.55;111554;1212;97577;-72
2023/11/02 05:22:56;;;;;;;;;;;;;;;7.66;100.00;99265.08;111541;1208;97589;-72
2023/11/02 05:25:23;;;;;;;;;;;;;;;7.66;100.00;99262.30;111505;1214;124725;-72
2023/11/02 05:27:48;;;;;;;;;;;;;;;7.68;100.00;99268.39;111516;1212;97693;-71
2023/11/02 05:30:13;;;;;;;;;;;;;;;7.68;100.00;99269.06;111435;1212;125000;-72
2023/11/02 05:32:39;;;;;;;;;;;;;;;7.69;100.00;99265.28;111576;1211;97584;-72
2023/11/02 05:35:04;;;;;;;;;;;;;;;7.71;100.00;99258.98;111465;1214;97728;-72
2023/11/02 05:37:31;;;;;;;;;;;;;;;7.70;100.00;99257.25;111442;1212;125260;-71
2023/11/02 05:39:56;;;;;;;;;;;;;;;7.69;100.00;99247.71;111517;1211;111620;-72
2023/11/02 05:42:21;;;;;;;;;;;;;;;7.67;100.00;99249.07;111415;1208;125051;-72
2023/11/02 05:44:46;;;;;;;;;;;;;;;7.64;100.00;99249.23;111528;1211;97487;-71
2023/11/02 05:47:11;;;;;;;;;;;;;;;7.61;100.00;99247.79;111523;1212;97696;-72
2023/11/02 05:49:37;;;;;;;;;;;;;;;7.62;100.00;99251.80;111459;1208;124783;-72
2023/11/02 05:52:02;;;;;;;;;;;;;;;7.64;100.00;99251.69;111422;1208;97706;-72
2023/11/02 05:54:27;;;;;;;;;;;;;;;7.66;100.00;99251.42;111398;1207;125109;-72
2023/11/02 05:56:52;;;;;;;;;;;;;;;7.68;100.00;99246.33;111488;1212;97614;-72
2023/11/02 05:59:18;;;;;;;;;;;;;;;7.70;100.00;99235.92;111539;1208;97646;-72
2023/11/02 06:01:44;;;;;;;;;;;;;;;7.69;100.00;99224.75;111392;1212;126068;-73
2023/11/02 06:04:10;;;;;;;;;;;;;;;7.68;100.00;99221.46;111703;1208;97675;-72
2023/11/02 06:06:35;;;;;;;;;;;;;;;7.66;100.00;99214.07;111541;1212;124962;-72
2023/11/02 06:09:00;;;;;;;;;;;;;;;7.66;100.00;99209.66;111588;1207;97600;-72
2023/11/02 06:11:26;;;;;;;;;;;;;;;7.64;100.00;99207.41;111515;1208;97612;-72
2023/11/02 06:13:51;;;;;;;;;;;;;;;7.64;100.00;99205.84;111523;1212;126151;-73
2023/11/02 06:16:16;;;;;;;;;;;;;;;7.65;100.00;99202.23;111541;1214;97581;-73
2023/11/02 06:18:43;;;;;;;;;;;;;;;7.63;100.00;99203.23;111378;1217;125232;-76
2023/11/02 06:21:08;;;;;;;;;;;;;;;7.60;100.00;99197.52;111549;1212;97576;-73
2023/11/02 06:23:34;;;;;;;;;;;;;;;7.59;100.00;99197.06;111515;1209;97573;-73
2023/11/02 06:25:59;;;;;;;;;;;;;;;7.57;100.00;99193.05;111481;1214;125560;-75
2023/11/02 06:28:25;;;;;;;;;;;;;;;7.57;100.00;99193.27;111414;1214;97593;-74
2023/11/02 06:30:51;;;;;;;;;;;;;;;7.57;100.00;99189.86;111397;1212;125365;-73
2023/11/02 06:33:25;;;;;;;;;;;;;;;7.58;100.00;99185.73;111583;1212;97606;-73
2023/11/02 06:35:51;;;;;;;;;;;;;;;7.60;100.00;99180.27;111343;1212;126307;-73
2023/11/02 06:38:17;;;;;;;;;;;;;;;7.62;100.00;99177.31;111420;1208;97621;-73
2023/11/02 06:40:43;;;;;;;;;;;;;;;7.64;100.00;99179.70;111462;1212;102439;-73
2023/11/02 06:43:08;;;;;;;;;;;;;;;7.67;100.00;99178.99;111396;1212;125146;-73
2023/11/02 06:45:34;;;;;;;;;;;;;;;7.71;100.00;99170.27;111409;1214;97576;-73
2023/11/02 06:47:59;;;;;;;;;;;;;;;7.73;100.00;99170.69;111502;1214;125285;-72
2023/11/02 06:50:24;;;;;;;;;;;;;;;7.74;100.00;99163.52;111440;1208;97578;-73
2023/11/02 06:52:49;;;;;;;;;;;;;;;7.75;100.00;99154.05;111520;1214;97761;-73
2023/11/02 06:55:14;;;;;;;;;;;;;;;7.76;100.00;99142.24;111417;1208;124872;-73
2023/11/02 06:57:39;;;;;;;;;;;;;;;7.77;100.00;99134.36;111560;1212;97799;-72
2023/11/02 07:00:09;;;;;;;;;;;;;;;7.78;100.00;99128.56;111549;1208;124885;-73
2023/11/02 07:02:36;;;;;;;;;;;;;;;7.83;100.00;99132.39;111413;1212;107655;-73
2023/11/02 07:05:01;;;;;;;;;;;;;;;7.88;100.00;99133.17;111479;1214;97639;-73
2023/11/02 07:07:26;;;;;;;;;;;;;;;7.93;100.00;99133.63;111425;1214;124667;-73
2023/11/02 07:09:51;;;;;;;;;;;;;;;7.97;100.00;99133.52;111648;1214;97726;-73
2023/11/02 07:12:17;;;;;;;;;;;;;;;8.02;100.00;99129.35;111417;1208;124847;-73
2023/11/02 07:14:43;;;;;;;;;;;;;;;8.05;100.00;99124.91;111566;1212;96928;-73
2023/11/02 07:17:08;;;;;;;;;;;;;;;8.10;100.00;99122.84;111532;1212;97610;-73
2023/11/02 07:19:33;;;;;;;;;;;;;;;8.17;100.00;99117.28;111314;1212;124882;-73
2023/11/02 07:21:59;;;;;;;;;;;;;;;8.24;100.00;99111.36;111529;1212;97738;-73
2023/11/02 07:24:24;;;;;;;;;;;;;;;8.28;100.00;99107.23;111358;1212;125028;-73
2023/11/02 07:26:50;;;;;;;;;;;;;;;8.33;100.00;99106.23;111537;1208;97610;-73
2023/11/02 07:29:15;;;;;;;;;;;;;;;8.36;100.00;99108.16;111425;1212;97586;-73
2023/11/02 07:31:41;;;;;;;;;;;;;;;8.41;100.00;99114.65;111304;1212;125382;-70
2023/11/02 07:34:06;;;;;;;;;;;;;;;8.47;100.00;99115.54;111482;1214;97817;-69
2023/11/02 07:36:31;;;;;;;;;;;;;;;8.51;100.00;99118.68;111295;1221;124993;-70
2023/11/02 07:38:56;;;;;;;;;;;;;;;8.54;100.00;99120.48;111447;1221;97630;-70
2023/11/02 07:41:21;;;;;;;;;;;;;;;8.54;100.00;99120.27;111503;1212;97681;-70
2023/11/02 07:43:47;;;;;;;;;;;;;;;8.52;100.00;99122.20;111387;1210;125669;-70
2023/11/02 07:46:12;;;;;;;;;;;;;;;8.52;100.00;99126.46;111435;1212;108331;-70
2023/11/02 07:48:39;;;;;;;;;;;;;;;8.51;100.00;99121.02;111311;1212;125422;-70
2023/11/02 07:51:04;;;;;;;;;;;;;;;8.48;100.00;99116.73;111517;1209;100573;-70
2023/11/02 07:53:30;;;;;;;;;;;;;;;8.50;100.00;99109.65;111521;1212;97770;-72
2023/11/02 07:55:55;;;;;;;;;;;;;;;8.51;100.00;99101.94;111382;1208;125242;-71
2023/11/02 07:58:22;;;;;;;;;;;;;;;8.52;100.00;99091.41;111592;1212;97655;-72
2023/11/02 08:00:47;;;;;;;;;;;;;;;8.54;100.00;99088.61;111396;1212;124984;-71
2023/11/02 08:03:12;;;;;;;;;;;;;;;8.56;100.00;99091.36;111474;1212;97696;-71
2023/11/02 08:05:39;;;;;;;;;;;;;;;8.58;100.00;99083.20;111546;1212;97752;-71
2023/11/02 08:08:04;;;;;;;;;;;;;;;8.58;100.00;99081.61;111268;1208;125962;-71
2023/11/02 08:10:30;;;;;;;;;;;;;;;8.62;100.00;99084.73;111506;1212;98970;-70
2023/11/02 08:12:55;;;;;;;;;;;;;;;8.65;100.00;99076.33;111515;1208;124913;-70
2023/11/02 08:15:20;;;;;;;;;;;;;;;8.69;100.00;99078.93;111512;1215;97616;-70
2023/11/02 08:17:45;;;;;;;;;;;;;;;8.74;100.00;99079.19;111411;1212;125658;-69
2023/11/02 08:20:10;;;;;;;;;;;;;;;8.78;100.00;99072.86;111419;1212;97635;-69
2023/11/02 08:22:36;;;;;;;;;;;;;;;8.85;100.00;99071.09;111586;1220;97713;-70
2023/11/02 08:25:01;;;;;;;;;;;;;;;8.90;100.00;99065.39;111249;1212;125573;-69
2023/11/02 08:27:28;;;;;;;;;;;;;;;8.97;100.00;99065.47;111469;1212;97608;-70
2023/11/02 08:29:53;;;;;;;;;;;;;;;9.05;100.00;99061.96;111438;1212;125498;-70
2023/11/02 08:32:18;;;;;;;;;;;;;;;9.12;100.00;99051.55;111587;1209;97674;-70
2023/11/02 08:34:44;;;;;;;;;;;;;;;9.18;100.00;99044.60;111480;1212;97360;-70
2023/11/02 08:37:11;;;;;;;;;;;;;;;9.24;100.00;99034.39;111507;1212;125860;-70
2023/11/02 08:39:36;;;;;;;;;;;;;;;9.30;100.00;99023.27;111504;1209;108959;-70
2023/11/02 08:42:02;;;;;;;;;;;;;;;9.36;100.00;99015.95;111443;1210;125645;-69
2023/11/02 08:44:29;;;;;;;;;;;;;;;9.41;100.00;99006.88;111593;1212;97555;-69
2023/11/02 08:46:54;;;;;;;;;;;;;;;9.48;100.00;99007.54;111379;1209;99719;-70
2023/11/02 08:49:20;;;;;;;;;;;;;;;9.56;100.00;99000.75;111041;1214;124912;-70
2023/11/02 08:51:46;;;;;;;;;;;;;;;9.64;100.00;98992.36;111597;1210;97596;-70
2023/11/02 08:54:11;;;;;;;;;;;;;;;9.73;100.00;98986.03;111455;1212;126017;-70
2023/11/02 08:56:36;;;;;;;;;;;;;;;9.80;100.00;98981.71;111502;1212;99061;-71
2023/11/02 08:59:01;;;;;;;;;;;;;;;9.85;100.00;98979.04;111519;1212;97952;-71
2023/11/02 09:01:26;;;;;;;;;;;;;;;9.93;100.00;98977.09;111445;1209;125425;-70
2023/11/02 09:03:53;;;;;;;;;;;;;;;9.99;100.00;98979.66;111553;1209;97594;-70
2023/11/02 09:06:19;;;;;;;;;;;;;;;10.06;100.00;98978.14;111321;1212;126622;-70
2023/11/02 09:08:45;;;;;;;;;;;;;;;10.13;100.00;98974.98;111497;1212;97622;-70
2023/11/02 09:11:10;;;;;;;;;;;;;;;10.20;100.00;98969.88;111567;1212;97655;-70
2023/11/02 09:13:35;;;;;;;;;;;;;;;10.27;100.00;98964.09;111359;1209;125516;-70
2023/11/02 09:16:00;;;;;;;;;;;;;;;10.35;100.00;98964.96;111560;1212;97573;-70
2023/11/02 09:18:26;;;;;;;;;;;;;;;10.43;100.00;98957.95;111173;1212;126290;-71
2023/11/02 09:20:52;;;;;;;;;;;;;;;10.52;100.00;98960.69;111492;1212;97640;-71
2023/11/02 09:23:17;;;;;;;;;;;;;;;10.61;100.00;98960.94;111594;1212;97742;-71
2023/11/02 09:25:49;;;;;;;;;;;;;;;10.70;100.00;98970.80;111406;1212;125035;-70
2023/11/02 09:28:14;;;;;;;;;;;;;;;10.77;100.00;98971.23;111549;1212;97701;-69
2023/11/02 09:30:41;;;;;;;;;;;;;;;10.83;100.00;98971.86;111447;1212;125041;-70
2023/11/02 09:33:06;;;;;;;;;;;;;;;10.91;100.00;98965.95;111551;1209;96582;-70
2023/11/02 09:35:31;;;;;;;;;;;;;;;10.98;100.00;98958.27;111552;1212;97677;-69
2023/11/02 09:37:57;;;;;;;;;;;;;;;11.04;100.00;98954.61;111360;1212;125994;-70
2023/11/02 09:40:22;;;;;;;;;;;;;;;11.11;100.00;98951.99;111624;1212;97608;-70
2023/11/02 09:42:47;;;;;;;;;;;;;;;11.20;100.00;98945.77;111022;1212;124892;-70
2023/11/02 09:45:12;;;;;;;;;;;;;;;11.29;100.00;98933.66;111614;1212;97747;-70
2023/11/02 09:47:38;;;;;;;;;;;;;;;11.39;100.00;98926.67;111470;1210;96257;-70
2023/11/02 09:50:04;;;;;;;;;;;;;;;11.49;100.00;98924.66;111530;1212;125348;-72
2023/11/02 09:52:30;;;;;;;;;;;;;;;11.60;100.00;98933.00;111539;1212;97616;-72
2023/11/02 09:54:55;;;;;;;;;;;;;;;11.67;100.00;98929.74;111432;1210;124845;-70
2023/11/02 09:57:21;;;;;;;;;;;;;;;11.76;100.00;98920.14;111437;1209;97636;-70
2023/11/02 09:59:46;;;;;;;;;;;;;;;11.86;100.00;98909.36;111519;1212;125089;-71
2023/11/02 10:02:12;;;;;;;;;;;;;;;11.96;100.00;98896.43;111542;1212;98435;-69
2023/11/02 10:04:37;;;;;;;;;;;;;;;12.06;100.00;98887.30;111338;1212;99035;-69
2023/11/02 10:07:04;;;;;;;;;;;;;;;12.12;100.00;98884.65;111547;1212;125463;-69
2023/11/02 10:09:29;;;;;;;;;;;;;;;12.18;100.00;98882.42;111439;1210;97588;-69
2023/11/02 10:11:54;;;;;;;;;;;;;;;12.25;100.00;98869.11;111483;1212;125210;-70
2023/11/02 10:14:19;;;;;;;;;;;;;;;12.36;100.00;98859.48;111530;1212;98068;-72
2023/11/02 10:16:44;;;;;;;;;;;;;;;12.46;100.00;98845.24;111428;1212;97823;-70
2023/11/02 10:19:10;;;;;;;;;;;;;;;12.54;100.00;98829.05;111332;1209;125914;-71
2023/11/02 10:21:37;;;;;;;;;;;;;;;12.60;100.00;98813.67;111422;1212;97803;-71
2023/11/02 10:24:03;;;;;;;;;;;;;;;12.67;100.00;98799.95;111320;1209;125213;-71
2023/11/02 10:26:28;;;;;;;;;;;;;;;12.76;100.00;98791.42;111470;1209;100467;-70
2023/11/02 10:28:55;;;;;;;;;;;;;;;12.83;100.00;98783.48;111431;1212;97707;-71
2023/11/02 10:31:24;;;;;;;;;;;;;;;12.92;100.00;98790.40;111249;1209;125275;-71
2023/11/02 10:33:50;;;;;;;;;;;;;;;12.99;100.00;98794.81;111456;1208;110394;-70
2023/11/02 10:36:16;;;;;;;;;;;;;;;13.04;100.00;98782.77;111263;1212;125631;-71
2023/11/02 10:38:45;;;;;;;;;;;;;;;13.06;100.00;98772.72;111394;1210;97710;-71
2023/11/02 10:41:15;;;;;;;;;;;;;;;13.10;100.00;98773.09;111407;1212;96509;-71
2023/11/02 10:43:41;;;;;;;;;;;;;;;13.16;100.00;98769.57;111364;1211;125010;-71
2023/11/02 10:46:10;;;;;;;;;;;;;;;13.19;100.00;98766.59;111366;1210;97604;-71
2023/11/02 10:48:37;;;;;;;;;;;;;;;13.21;100.00;98765.35;111428;1212;125337;-70
2023/11/02 10:51:04;;;;;;;;;;;;;;;13.20;100.00;98754.16;111500;1212;97632;-70
2023/11/02 10:53:55;;;;;;;;;;;;;;;13.17;100.00;98761.09;111388;1209;97585;-70
2023/11/02 10:56:21;;;;;;;;;;;;;;;13.13;100.00;98768.02;111357;1212;97684;-70
2023/11/02 10:58:48;;;;;;;;;;;;;;;13.14;100.00;98764.66;111463;1209;97606;-70
2023/11/02 11:01:14;;;;;;;;;;;;;;;13.17;99.94;98764.49;111268;1212;125548;-70
2023/11/02 11:03:39;;;;;;;;;;;;;;;13.21;99.85;98757.29;111450;1209;97587;-70
2023/11/02 11:06:05;;;;;;;;;;;;;;;13.27;99.91;98760.36;111345;1209;124897;-70
2023/11/02 11:08:31;;;;;;;;;;;;;;;13.33;99.83;98761.34;111412;1209;97652;-70
2023/11/02 11:10:58;;;;;;;;;;;;;;;13.41;99.87;98754.38;111477;1212;97794;-70
2023/11/02 11:13:24;;;;;;;;;;;;;;;13.48;99.77;98739.10;111300;1212;125360;-71
2023/11/02 11:15:51;;;;;;;;;;;;;;;13.54;99.69;98732.77;111391;1212;96011;-70
2023/11/02 11:18:17;;;;;;;;;;;;;;;13.61;99.42;98718.00;111364;1212;125676;-70
2023/11/02 11:20:43;;;;;;;;;;;;;;;13.66;99.26;98708.05;111450;1212;97665;-70
2023/11/02 11:23:09;;;;;;;;;;;;;;;13.74;99.18;98708.27;111535;1212;97677;-70
2023/11/02 11:25:34;;;;;;;;;;;;;;;13.79;99.06;98710.16;111284;1208;127788;-69
2023/11/02 11:27:59;;;;;;;;;;;;;;;13.79;98.80;98703.70;111483;1210;97717;-69
2023/11/02 11:30:31;;;;;;;;;;;;;;;13.76;98.58;98698.55;111341;1212;125622;-70
2023/11/02 11:32:57;;;;;;;;;;;;;;;13.76;98.44;98697.02;111417;1212;97696;-70
2023/11/02 11:35:23;;;;;;;;;;;;;;;13.78;98.35;98697.70;111428;1212;97773;-70
2023/11/02 11:37:50;;;;;;;;;;;;;;;13.75;97.85;98693.98;111369;1212;125020;-70
2023/11/02 11:40:19;;;;;;;;;;;;;;;13.75;97.67;98697.93;111336;1209;101107;-71
2023/11/02 11:43:01;;;;;;;;;;;;;;;13.78;97.58;98691.74;111355;1212;125532;-70
2023/11/02 11:45:32;;;;;;;;;;;;;;;13.83;97.41;98690.45;111485;1212;97491;-70
2023/11/02 11:47:58;;;;;;;;;;;;;;;13.86;97.22;98698.41;111377;1209;125008;-70
2023/11/02 11:50:35;;;;;;;;;;;;;;;13.90;97.04;98700.77;111490;1208;96508;-70
2023/11/02 11:53:07;;;;;;;;;;;;;;;13.95;96.93;98696.89;111515;1212;99568;-70
2023/11/02 11:55:34;;;;;;;;;;;;;;;14.01;96.76;98694.39;111379;1212;124853;-70
2023/11/02 11:57:59;;;;;;;;;;;;;;;14.06;96.77;98687.89;111493;1212;97600;-70
2023/11/02 12:00:25;;;;;;;;;;;;;;;14.09;96.64;98690.99;111070;1209;126207;-70
2023/11/02 12:03:05;;;;;;;;;;;;;;;14.13;96.60;98683.44;111420;1210;99566;-70
2023/11/02 12:05:43;;;;;;;;;;;;;;;14.18;96.48;98673.46;111437;1208;107566;-69
2023/11/02 12:08:09;;;;;;;;;;;;;;;14.22;96.39;98666.47;111411;1209;124842;-70
2023/11/02 12:11:01;;;;;;;;;;;;;;;14.19;96.04;98665.13;111506;1209;98943;-70
2023/11/02 12:13:27;;;;;;;;;;;;;;;14.13;95.96;98658.47;111259;1212;124916;-70
2023/11/02 12:15:53;;;;;;;;;;;;;;;14.12;95.94;98659.16;111505;1209;99742;-69
2023/11/02 12:18:21;;;;;;;;;;;;;;;14.12;95.70;98658.95;111389;1212;125039;-70
2023/11/02 12:20:46;;;;;;;;;;;;;;;14.15;95.59;98652.61;111278;1209;98929;-69
2023/11/02 12:23:13;;;;;;;;;;;;;;;14.13;95.37;98648.95;111275;1209;100399;-69
2023/11/02 12:25:41;;;;;;;;;;;;;;;14.15;95.47;98641.80;111409;1212;125034;-69
2023/11/02 12:28:11;;;;;;;;;;;;;;;14.19;95.36;98637.65;111475;1212;98830;-69
2023/11/02 12:30:43;;;;;;;;;;;;;;;14.24;95.44;98632.14;111413;1212;125085;-70
2023/11/02 12:33:09;;;;;;;;;;;;;;;14.25;94.96;98629.55;111502;1209;112392;-70
2023/11/02 12:35:34;;;;;;;;;;;;;;;14.29;94.81;98626.33;111443;1212;99003;-70